sensor_id;sensor_type;location;lat;lon;timestamp;pressure;altitude;pressure_sealevel;temperature;humidity
42725;BME280;28369;44.046;23.014;2023-12-07T00:01:52;100564.94;;;5.77;66.26
42725;BME280;28369;44.046;23.014;2023-12-07T00:04:18;100794.19;;;7.32;66.39
42725;BME280;28369;44.046;23.014;2023-12-07T00:09:12;101051.41;;;8.90;66.80
42725;BME280;28369;44.046;23.014;2023-12-07T00:11:37;100515.97;;;5.54;66.75
42725;BME280;28369;44.046;23.014;2023-12-07T00:14:03;100511.31;;;5.45;66.54
42725;BME280;28369;44.046;23.014;2023-12-07T00:16:29;100829.78;;;7.35;66.67
42725;BME280;28369;44.046;23.014;2023-12-07T00:18:55;100986.63;;;8.41;66.84
42725;BME280;28369;44.046;23.014;2023-12-07T00:21:20;100604.50;;;5.70;66.63
42725;BME280;28369;44.046;23.014;2023-12-07T00:23:46;100561.94;;;5.83;66.45
42725;BME280;28369;44.046;23.014;2023-12-07T00:26:12;100802.38;;;7.28;66.73
42725;BME280;28369;44.046;23.014;2023-12-07T00:28:37;100863.91;;;7.46;66.75
42725;BME280;28369;44.046;23.014;2023-12-07T00:31:03;101001.31;;;8.18;67.02
42725;BME280;28369;44.046;23.014;2023-12-07T00:33:29;101178.59;;;9.72;66.78
42725;BME280;28369;44.046;23.014;2023-12-07T00:35:54;100567.50;;;5.64;66.28
42725;BME280;28369;44.046;23.014;2023-12-07T00:38:20;100551.47;;;5.70;66.25
42725;BME280;28369;44.046;23.014;2023-12-07T00:40:46;100805.19;;;7.37;66.57
42725;BME280;28369;44.046;23.014;2023-12-07T00:43:12;100709.09;;;6.62;67.20
42725;BME280;28369;44.046;23.014;2023-12-07T00:45:38;101225.88;;;9.59;67.38
42725;BME280;28369;44.046;23.014;2023-12-07T00:48:04;100960.66;;;7.73;67.41
42725;BME280;28369;44.046;23.014;2023-12-07T00:50:30;100567.41;;;5.65;66.82
42725;BME280;28369;44.046;23.014;2023-12-07T00:52:56;100796.22;;;6.88;67.60
42725;BME280;28369;44.046;23.014;2023-12-07T00:55:21;101187.81;;;9.77;66.61
42725;BME280;28369;44.046;23.014;2023-12-07T00:57:47;100930.06;;;8.12;66.74
42725;BME280;28369;44.046;23.014;2023-12-07T01:00:13;100612.13;;;5.74;67.30
42725;BME280;28369;44.046;23.014;2023-12-07T01:02:39;100954.56;;;7.73;67.91
42725;BME280;28369;44.046;23.014;2023-12-07T01:05:05;100918.66;;;8.01;67.83
42725;BME280;28369;44.046;23.014;2023-12-07T01:07:31;100661.28;;;6.34;67.17
42725;BME280;28369;44.046;23.014;2023-12-07T01:09:56;100602.28;;;6.19;67.29
42725;BME280;28369;44.046;23.014;2023-12-07T01:12:22;100535.91;;;5.68;67.24
42725;BME280;28369;44.046;23.014;2023-12-07T01:14:48;101170.41;;;9.76;67.46
42725;BME280;28369;44.046;23.014;2023-12-07T01:17:14;100961.16;;;8.43;67.13
42725;BME280;28369;44.046;23.014;2023-12-07T01:19:40;100531.13;;;5.75;66.98
42725;BME280;28369;44.046;23.014;2023-12-07T01:22:06;100933.63;;;8.11;67.49
42725;BME280;28369;44.046;23.014;2023-12-07T01:24:32;100817.94;;;7.16;68.23
42725;BME280;28369;44.046;23.014;2023-12-07T01:26:57;100594.31;;;5.53;68.38
42725;BME280;28369;44.046;23.014;2023-12-07T01:29:23;100552.56;;;5.53;68.84
42725;BME280;28369;44.046;23.014;2023-12-07T01:31:49;100632.16;;;5.73;68.85
42725;BME280;28369;44.046;23.014;2023-12-07T01:34:16;100554.63;;;5.48;68.63
42725;BME280;28369;44.046;23.014;2023-12-07T01:36:42;100814.69;;;7.25;68.79
42725;BME280;28369;44.046;23.014;2023-12-07T01:39:09;101069.47;;;8.69;69.65
42725;BME280;28369;44.046;23.014;2023-12-07T01:41:38;100518.19;;;5.33;69.18
42725;BME280;28369;44.046;23.014;2023-12-07T01:44:04;100495.72;;;5.04;69.04
42725;BME280;28369;44.046;23.014;2023-12-07T01:46:30;100609.91;;;5.67;69.44
42725;BME280;28369;44.046;23.014;2023-12-07T01:48:56;100535.16;;;5.53;69.62
42725;BME280;28369;44.046;23.014;2023-12-07T01:51:22;100951.34;;;8.21;69.67
42725;BME280;28369;44.046;23.014;2023-12-07T01:53:48;100936.56;;;7.94;69.85
42725;BME280;28369;44.046;23.014;2023-12-07T01:56:15;100621.94;;;5.83;69.98
42725;BME280;28369;44.046;23.014;2023-12-07T01:58:42;101008.75;;;8.24;70.36
42725;BME280;28369;44.046;23.014;2023-12-07T02:01:08;101172.81;;;9.29;70.73
42725;BME280;28369;44.046;23.014;2023-12-07T02:03:39;100594.78;;;5.45;70.62
42725;BME280;28369;44.046;23.014;2023-12-07T02:06:05;101071.97;;;8.58;70.80
42725;BME280;28369;44.046;23.014;2023-12-07T02:08:31;100916.03;;;7.62;71.40
42725;BME280;28369;44.046;23.014;2023-12-07T02:10:57;100540.50;;;5.38;71.09
42725;BME280;28369;44.046;23.014;2023-12-07T02:13:23;100753.38;;;6.91;70.48
42725;BME280;28369;44.046;23.014;2023-12-07T02:15:48;100729.06;;;6.63;70.95
42725;BME280;28369;44.046;23.014;2023-12-07T02:18:39;100949.16;;;8.15;70.56
42725;BME280;28369;44.046;23.014;2023-12-07T02:21:58;101103.28;;;9.11;70.70
42725;BME280;28369;44.046;23.014;2023-12-07T02:24:26;100956.03;;;8.03;70.19
42725;BME280;28369;44.046;23.014;2023-12-07T02:26:53;100528.88;;;5.83;69.35
42725;BME280;28369;44.046;23.014;2023-12-07T02:29:19;100995.53;;;8.38;69.92
42725;BME280;28369;44.046;23.014;2023-12-07T02:31:45;101183.41;;;9.78;69.77
42725;BME280;28369;44.046;23.014;2023-12-07T02:34:11;100949.25;;;8.26;69.70
42725;BME280;28369;44.046;23.014;2023-12-07T02:36:39;101168.94;;;9.72;69.72
42725;BME280;28369;44.046;23.014;2023-12-07T02:39:06;101181.78;;;9.64;69.58
42725;BME280;28369;44.046;23.014;2023-12-07T02:41:33;100595.44;;;6.03;69.01
42725;BME280;28369;44.046;23.014;2023-12-07T02:43:59;100621.34;;;6.07;69.13
42725;BME280;28369;44.046;23.014;2023-12-07T02:46:25;100858.38;;;7.64;69.84
42725;BME280;28369;44.046;23.014;2023-12-07T02:48:51;100597.50;;;5.98;69.01
42725;BME280;28369;44.046;23.014;2023-12-07T02:51:17;100803.91;;;7.43;68.91
42725;BME280;28369;44.046;23.014;2023-12-07T02:53:43;100612.75;;;6.45;68.50
42725;BME280;28369;44.046;23.014;2023-12-07T02:56:09;100505.22;;;5.59;68.17
42725;BME280;28369;44.046;23.014;2023-12-07T02:58:35;100570.63;;;6.23;67.90
42725;BME280;28369;44.046;23.014;2023-12-07T03:01:00;101206.34;;;10.00;67.79
42725;BME280;28369;44.046;23.014;2023-12-07T03:03:26;101166.22;;;9.98;68.21
42725;BME280;28369;44.046;23.014;2023-12-07T03:05:52;100609.91;;;6.35;68.09
42725;BME280;28369;44.046;23.014;2023-12-07T03:08:17;100899.59;;;8.11;68.39
42725;BME280;28369;44.046;23.014;2023-12-07T03:10:43;100620.53;;;6.19;68.03
42725;BME280;28369;44.046;23.014;2023-12-07T03:13:08;100829.78;;;7.73;68.33
42725;BME280;28369;44.046;23.014;2023-12-07T03:15:34;100849.56;;;7.65;68.08
42725;BME280;28369;44.046;23.014;2023-12-07T03:18:00;101214.59;;;9.82;68.44
42725;BME280;28369;44.046;23.014;2023-12-07T03:20:26;100834.16;;;7.34;69.19
42725;BME280;28369;44.046;23.014;2023-12-07T03:22:51;100494.47;;;4.67;70.88
42725;BME280;28369;44.046;23.014;2023-12-07T03:25:17;100525.44;;;4.87;70.98
42725;BME280;28369;44.046;23.014;2023-12-07T03:27:46;100557.97;;;5.50;70.31
42725;BME280;28369;44.046;23.014;2023-12-07T03:30:12;100947.25;;;8.04;70.67
42725;BME280;28369;44.046;23.014;2023-12-07T03:32:38;100815.44;;;7.15;70.79
42725;BME280;28369;44.046;23.014;2023-12-07T03:35:04;100565.50;;;5.54;70.43
42725;BME280;28369;44.046;23.014;2023-12-07T03:37:30;100816.28;;;7.54;69.61
42725;BME280;28369;44.046;23.014;2023-12-07T03:39:55;100820.03;;;7.63;68.26
42725;BME280;28369;44.046;23.014;2023-12-07T03:42:21;100878.00;;;8.21;68.11
42725;BME280;28369;44.046;23.014;2023-12-07T03:44:46;100597.69;;;5.95;68.75
42725;BME280;28369;44.046;23.014;2023-12-07T03:47:13;100841.59;;;7.92;68.92
42725;BME280;28369;44.046;23.014;2023-12-07T03:49:41;100731.09;;;6.98;69.00
42725;BME280;28369;44.046;23.014;2023-12-07T03:52:07;101011.19;;;9.03;68.69
42725;BME280;28369;44.046;23.014;2023-12-07T03:54:33;100506.91;;;6.00;68.42
42725;BME280;28369;44.046;23.014;2023-12-07T03:56:58;100546.31;;;6.23;68.15
42725;BME280;28369;44.046;23.014;2023-12-07T03:59:25;101194.13;;;10.36;67.80
42725;BME280;28369;44.046;23.014;2023-12-07T04:01:51;100617.88;;;6.85;66.97
42725;BME280;28369;44.046;23.014;2023-12-07T04:04:17;100872.63;;;8.35;67.23
42725;BME280;28369;44.046;23.014;2023-12-07T04:06:42;100750.25;;;7.63;67.34
42725;BME280;28369;44.046;23.014;2023-12-07T04:09:08;100640.66;;;6.96;67.21
42725;BME280;28369;44.046;23.014;2023-12-07T04:11:34;100569.63;;;6.52;67.00
42725;BME280;28369;44.046;23.014;2023-12-07T04:13:59;100631.34;;;6.79;66.80
42725;BME280;28369;44.046;23.014;2023-12-07T04:16:25;101001.16;;;9.21;66.97
42725;BME280;28369;44.046;23.014;2023-12-07T04:18:51;101235.03;;;10.51;66.75
42725;BME280;28369;44.046;23.014;2023-12-07T04:21:17;100941.28;;;8.90;66.58
42725;BME280;28369;44.046;23.014;2023-12-07T04:23:43;100630.75;;;6.88;66.43
42725;BME280;28369;44.046;23.014;2023-12-07T04:26:08;100986.94;;;9.12;66.70
42725;BME280;28369;44.046;23.014;2023-12-07T04:28:34;100731.22;;;7.09;66.57
42725;BME280;28369;44.046;23.014;2023-12-07T04:31:00;100622.06;;;6.49;66.55
42725;BME280;28369;44.046;23.014;2023-12-07T04:33:25;101011.66;;;9.21;66.64
42725;BME280;28369;44.046;23.014;2023-12-07T04:35:51;101233.25;;;10.52;66.58
42725;BME280;28369;44.046;23.014;2023-12-07T04:38:17;100610.16;;;6.45;66.51
42725;BME280;28369;44.046;23.014;2023-12-07T04:40:43;101244.31;;;10.44;66.95
42725;BME280;28369;44.046;23.014;2023-12-07T04:43:09;100878.53;;;8.26;66.56
42725;BME280;28369;44.046;23.014;2023-12-07T04:45:35;100682.59;;;6.94;66.56
42725;BME280;28369;44.046;23.014;2023-12-07T04:48:04;100776.72;;;7.46;66.70
42725;BME280;28369;44.046;23.014;2023-12-07T04:50:29;100717.44;;;7.07;66.77
42725;BME280;28369;44.046;23.014;2023-12-07T04:52:55;100893.38;;;8.38;66.90
42725;BME280;28369;44.046;23.014;2023-12-07T04:55:21;100954.97;;;8.44;66.50
42725;BME280;28369;44.046;23.014;2023-12-07T04:57:46;100913.38;;;8.39;66.71
42725;BME280;28369;44.046;23.014;2023-12-07T05:00:12;101041.34;;;9.21;66.92
42725;BME280;28369;44.046;23.014;2023-12-07T05:02:39;100675.59;;;6.95;66.74
42725;BME280;28369;44.046;23.014;2023-12-07T05:05:05;100602.81;;;6.50;66.63
42725;BME280;28369;44.046;23.014;2023-12-07T05:07:31;100670.94;;;6.47;66.99
42725;BME280;28369;44.046;23.014;2023-12-07T05:09:56;100799.00;;;7.51;67.33
42725;BME280;28369;44.046;23.014;2023-12-07T05:12:23;100917.28;;;8.34;67.15
42725;BME280;28369;44.046;23.014;2023-12-07T05:14:49;100790.53;;;7.35;67.11
42725;BME280;28369;44.046;23.014;2023-12-07T05:17:15;101100.66;;;9.48;67.53
42725;BME280;28369;44.046;23.014;2023-12-07T05:19:41;100926.06;;;8.33;67.50
42725;BME280;28369;44.046;23.014;2023-12-07T05:22:07;100654.66;;;6.56;67.19
42725;BME280;28369;44.046;23.014;2023-12-07T05:24:34;101077.97;;;9.23;66.99
42725;BME280;28369;44.046;23.014;2023-12-07T05:27:00;100790.44;;;7.36;67.44
42725;BME280;28369;44.046;23.014;2023-12-07T05:29:26;101005.00;;;8.54;68.02
42725;BME280;28369;44.046;23.014;2023-12-07T05:31:51;100638.84;;;6.32;68.38
42725;BME280;28369;44.046;23.014;2023-12-07T05:34:17;101034.03;;;8.63;68.73
42725;BME280;28369;44.046;23.014;2023-12-07T05:36:43;100601.41;;;5.91;68.76
42725;BME280;28369;44.046;23.014;2023-12-07T05:39:09;100876.03;;;7.86;68.88
42725;BME280;28369;44.046;23.014;2023-12-07T05:41:36;101012.63;;;8.31;69.78
42725;BME280;28369;44.046;23.014;2023-12-07T05:44:02;101088.50;;;8.97;69.33
42725;BME280;28369;44.046;23.014;2023-12-07T05:46:29;101313.41;;;10.09;69.67
42725;BME280;28369;44.046;23.014;2023-12-07T05:48:55;100672.47;;;6.36;69.49
42725;BME280;28369;44.046;23.014;2023-12-07T05:51:21;100733.81;;;6.44;70.35
42725;BME280;28369;44.046;23.014;2023-12-07T05:53:46;100625.72;;;6.06;69.66
42725;BME280;28369;44.046;23.014;2023-12-07T05:56:18;100628.28;;;5.93;70.08
42725;BME280;28369;44.046;23.014;2023-12-07T05:58:45;101300.97;;;10.11;70.08
42725;BME280;28369;44.046;23.014;2023-12-07T06:01:11;101073.75;;;8.70;69.70
42725;BME280;28369;44.046;23.014;2023-12-07T06:03:36;100971.78;;;7.50;71.13
42725;BME280;28369;44.046;23.014;2023-12-07T06:06:02;100660.72;;;5.89;71.15
42725;BME280;28369;44.046;23.014;2023-12-07T06:08:28;100815.69;;;6.97;70.52
42725;BME280;28369;44.046;23.014;2023-12-07T06:10:53;100834.38;;;6.91;70.60
42725;BME280;28369;44.046;23.014;2023-12-07T06:13:19;101294.19;;;9.96;70.33
42725;BME280;28369;44.046;23.014;2023-12-07T06:15:46;101267.41;;;9.91;70.30
42725;BME280;28369;44.046;23.014;2023-12-07T06:18:13;101065.25;;;8.41;71.21
42725;BME280;28369;44.046;23.014;2023-12-07T06:20:39;100918.88;;;7.59;70.54
42725;BME280;28369;44.046;23.014;2023-12-07T06:23:07;100741.50;;;6.32;70.70
42725;BME280;28369;44.046;23.014;2023-12-07T06:25:39;101117.38;;;8.58;71.55
42725;BME280;28369;44.046;23.014;2023-12-07T06:28:06;100748.16;;;6.23;71.13
42725;BME280;28369;44.046;23.014;2023-12-07T06:30:32;101060.75;;;7.90;72.40
42725;BME280;28369;44.046;23.014;2023-12-07T06:32:57;100723.75;;;6.25;71.51
42725;BME280;28369;44.046;23.014;2023-12-07T06:35:23;100588.72;;;5.45;70.85
42725;BME280;28369;44.046;23.014;2023-12-07T06:37:49;100812.69;;;6.63;71.21
42725;BME280;28369;44.046;23.014;2023-12-07T06:40:15;100698.63;;;5.95;71.38
42725;BME280;28369;44.046;23.014;2023-12-07T06:42:48;100741.22;;;6.10;71.80
42725;BME280;28369;44.046;23.014;2023-12-07T06:45:18;101145.59;;;8.80;71.34
42725;BME280;28369;44.046;23.014;2023-12-07T06:47:44;101022.84;;;7.95;71.10
42725;BME280;28369;44.046;23.014;2023-12-07T06:50:11;100842.03;;;6.94;70.22
42725;BME280;28369;44.046;23.014;2023-12-07T06:52:40;100826.25;;;6.96;70.30
42725;BME280;28369;44.046;23.014;2023-12-07T06:55:08;101096.50;;;8.57;70.27
42725;BME280;28369;44.046;23.014;2023-12-07T06:57:36;101056.84;;;8.74;69.54
42725;BME280;28369;44.046;23.014;2023-12-07T07:00:06;101402.03;;;10.44;69.79
42725;BME280;28369;44.046;23.014;2023-12-07T07:02:40;101281.50;;;9.90;69.38
42725;BME280;28369;44.046;23.014;2023-12-07T07:05:16;100724.25;;;6.57;69.01
42725;BME280;28369;44.046;23.014;2023-12-07T07:07:43;100898.00;;;7.44;69.80
42725;BME280;28369;44.046;23.014;2023-12-07T07:10:09;100779.22;;;6.68;69.87
42725;BME280;28369;44.046;23.014;2023-12-07T07:12:36;100760.41;;;6.23;70.34
42725;BME280;28369;44.046;23.014;2023-12-07T07:15:02;101131.53;;;8.69;70.18
42725;BME280;28369;44.046;23.014;2023-12-07T07:17:29;101376.53;;;10.20;70.26
